KIPT/IPT METAR and TAF weather

Enter ICAO airport designator
Station Type Date Time Source
KIPT METAR 2020/01/17 21:54 UTC NOAA

KIPT 172154Z 33004KT 10SM CLR M04/M16 A3070 RMK AO2 SLP403 T10441161


Station Type Date Time Source
KIPT Decoded METAR 2020/01/17 21:54 UTC NOAA

WILLIAMSPORT-LYCOMING COUNTY, PA, United States (KIPT) 41-15N 076-55W 164M
Jan 17, 2020 - 04:54 PM EST / 2020.01.17 2154 UTC
Wind: from the NNW (330 degrees) at 5 MPH (4 KT):0
Visibility: 10 mile(s):0
Sky conditions: clear
Temperature: 24.1 F (-4.4 C)
Windchill: 17 F (-8 C):1
Dew Point: 3.0 F (-16.1 C)
Relative Humidity: 39%
Pressure (altimeter): 30.7 in. Hg (1039 hPa)
ob: KIPT 172154Z 33004KT 10SM CLR M04/M16 A3070 RMK AO2 SLP403 T10441161
cycle: 22

Station Type Date Time Source
KIPT TAF 2020/01/17 23:42 UTC NOAA

TAF
AMD KIPT 172241Z 1723/1818 33004KT P6SM SKC
FM180100 04005KT P6SM BKN250
FM181500 10008G20KT 1SM -SN OVC012

Example: see airport list